sensor_id;sensor_type;location;lat;lon;timestamp;temperature;humidity
54272;DHT22;40184;53.362;5.216;2023-04-25T00:02:13;7.30;99.90
54272;DHT22;40184;53.362;5.216;2023-04-25T00:04:40;7.30;99.90
54272;DHT22;40184;53.362;5.216;2023-04-25T00:07:06;7.30;99.90
54272;DHT22;40184;53.362;5.216;2023-04-25T00:09:31;7.30;99.90
54272;DHT22;40184;53.362;5.216;2023-04-25T00:11:57;7.30;99.90
54272;DHT22;40184;53.362;5.216;2023-04-25T00:14:23;7.30;99.90
54272;DHT22;40184;53.362;5.216;2023-04-25T00:16:48;7.40;99.90
54272;DHT22;40184;53.362;5.216;2023-04-25T00:19:17;7.40;99.90
54272;DHT22;40184;53.362;5.216;2023-04-25T00:21:42;7.50;99.90
54272;DHT22;40184;53.362;5.216;2023-04-25T00:24:11;7.40;99.90
54272;DHT22;40184;53.362;5.216;2023-04-25T00:26:37;7.30;99.90
54272;DHT22;40184;53.362;5.216;2023-04-25T00:29:03;7.20;99.90
54272;DHT22;40184;53.362;5.216;2023-04-25T00:31:29;7.10;99.90
54272;DHT22;40184;53.362;5.216;2023-04-25T00:33:55;7.10;99.90
54272;DHT22;40184;53.362;5.216;2023-04-25T00:36:20;7.00;99.90
54272;DHT22;40184;53.362;5.216;2023-04-25T00:38:46;7.10;99.90
54272;DHT22;40184;53.362;5.216;2023-04-25T00:41:12;7.20;99.90
54272;DHT22;40184;53.362;5.216;2023-04-25T00:43:38;7.20;99.90
54272;DHT22;40184;53.362;5.216;2023-04-25T00:46:05;7.20;99.90
54272;DHT22;40184;53.362;5.216;2023-04-25T00:48:30;7.20;99.90
54272;DHT22;40184;53.362;5.216;2023-04-25T00:50:59;7.20;99.90
54272;DHT22;40184;53.362;5.216;2023-04-25T00:53:27;7.20;99.90
54272;DHT22;40184;53.362;5.216;2023-04-25T00:55:53;7.30;99.90
54272;DHT22;40184;53.362;5.216;2023-04-25T00:58:20;7.20;99.90
54272;DHT22;40184;53.362;5.216;2023-04-25T01:00:48;7.20;99.90
54272;DHT22;40184;53.362;5.216;2023-04-25T01:03:14;7.20;99.90
54272;DHT22;40184;53.362;5.216;2023-04-25T01:05:43;7.30;99.90
54272;DHT22;40184;53.362;5.216;2023-04-25T01:08:09;7.20;99.90
54272;DHT22;40184;53.362;5.216;2023-04-25T01:10:36;7.20;99.90
54272;DHT22;40184;53.362;5.216;2023-04-25T01:13:03;7.20;99.90
54272;DHT22;40184;53.362;5.216;2023-04-25T01:15:29;7.30;99.90
54272;DHT22;40184;53.362;5.216;2023-04-25T01:17:54;7.30;99.90
54272;DHT22;40184;53.362;5.216;2023-04-25T01:20:24;7.30;99.90
54272;DHT22;40184;53.362;5.216;2023-04-25T01:22:54;7.30;99.90
54272;DHT22;40184;53.362;5.216;2023-04-25T01:25:21;7.40;99.90
54272;DHT22;40184;53.362;5.216;2023-04-25T01:27:47;7.40;99.90
54272;DHT22;40184;53.362;5.216;2023-04-25T01:30:13;7.30;99.90
54272;DHT22;40184;53.362;5.216;2023-04-25T01:32:41;7.30;99.90
54272;DHT22;40184;53.362;5.216;2023-04-25T01:35:09;7.30;99.90
54272;DHT22;40184;53.362;5.216;2023-04-25T01:37:44;7.30;99.90
54272;DHT22;40184;53.362;5.216;2023-04-25T01:40:11;7.30;99.90
54272;DHT22;40184;53.362;5.216;2023-04-25T01:42:40;7.20;99.90
54272;DHT22;40184;53.362;5.216;2023-04-25T01:45:07;7.20;99.90
54272;DHT22;40184;53.362;5.216;2023-04-25T01:47:33;7.20;99.90
54272;DHT22;40184;53.362;5.216;2023-04-25T01:50:01;7.30;99.90
54272;DHT22;40184;53.362;5.216;2023-04-25T01:52:27;7.30;99.90
54272;DHT22;40184;53.362;5.216;2023-04-25T01:54:53;7.30;99.90
54272;DHT22;40184;53.362;5.216;2023-04-25T01:57:18;7.30;99.90
54272;DHT22;40184;53.362;5.216;2023-04-25T01:59:44;7.20;99.90
54272;DHT22;40184;53.362;5.216;2023-04-25T02:02:10;7.20;99.90
54272;DHT22;40184;53.362;5.216;2023-04-25T02:04:36;7.10;99.90
54272;DHT22;40184;53.362;5.216;2023-04-25T02:07:02;7.00;99.90
54272;DHT22;40184;53.362;5.216;2023-04-25T02:09:28;7.00;99.90
54272;DHT22;40184;53.362;5.216;2023-04-25T02:11:54;7.00;99.90
54272;DHT22;40184;53.362;5.216;2023-04-25T02:14:19;6.90;99.90
54272;DHT22;40184;53.362;5.216;2023-04-25T02:16:46;7.00;99.90
54272;DHT22;40184;53.362;5.216;2023-04-25T02:19:12;7.00;99.90
54272;DHT22;40184;53.362;5.216;2023-04-25T02:21:38;7.10;99.90
54272;DHT22;40184;53.362;5.216;2023-04-25T02:24:04;7.10;99.90
54272;DHT22;40184;53.362;5.216;2023-04-25T02:26:30;7.10;99.90
54272;DHT22;40184;53.362;5.216;2023-04-25T02:28:58;7.10;99.90
54272;DHT22;40184;53.362;5.216;2023-04-25T02:31:24;7.10;99.90
54272;DHT22;40184;53.362;5.216;2023-04-25T02:33:49;7.10;99.90
54272;DHT22;40184;53.362;5.216;2023-04-25T02:36:15;7.00;99.90
54272;DHT22;40184;53.362;5.216;2023-04-25T02:38:41;7.00;99.90
54272;DHT22;40184;53.362;5.216;2023-04-25T02:41:07;7.00;99.90
54272;DHT22;40184;53.362;5.216;2023-04-25T02:43:32;7.00;99.90
54272;DHT22;40184;53.362;5.216;2023-04-25T02:45:58;7.00;99.90
54272;DHT22;40184;53.362;5.216;2023-04-25T02:48:23;7.00;99.90
54272;DHT22;40184;53.362;5.216;2023-04-25T02:50:49;7.00;99.90
54272;DHT22;40184;53.362;5.216;2023-04-25T02:53:15;7.00;99.90
54272;DHT22;40184;53.362;5.216;2023-04-25T02:55:40;7.00;99.90
54272;DHT22;40184;53.362;5.216;2023-04-25T02:58:06;7.00;99.90
54272;DHT22;40184;53.362;5.216;2023-04-25T03:00:32;7.00;99.90
54272;DHT22;40184;53.362;5.216;2023-04-25T03:02:58;7.00;99.90
54272;DHT22;40184;53.362;5.216;2023-04-25T03:05:24;7.00;99.90
54272;DHT22;40184;53.362;5.216;2023-04-25T03:07:49;7.00;99.90
54272;DHT22;40184;53.362;5.216;2023-04-25T03:10:15;7.00;99.90
54272;DHT22;40184;53.362;5.216;2023-04-25T03:12:41;6.90;99.90
54272;DHT22;40184;53.362;5.216;2023-04-25T03:15:07;6.90;99.90
54272;DHT22;40184;53.362;5.216;2023-04-25T03:17:33;6.80;99.90
54272;DHT22;40184;53.362;5.216;2023-04-25T03:19:58;6.90;99.90
54272;DHT22;40184;53.362;5.216;2023-04-25T03:22:24;6.90;99.90
54272;DHT22;40184;53.362;5.216;2023-04-25T03:24:50;7.00;99.90
54272;DHT22;40184;53.362;5.216;2023-04-25T03:27:16;6.90;99.90
54272;DHT22;40184;53.362;5.216;2023-04-25T03:29:42;6.90;99.90
54272;DHT22;40184;53.362;5.216;2023-04-25T03:32:08;7.00;99.90
54272;DHT22;40184;53.362;5.216;2023-04-25T03:34:33;7.00;99.90
54272;DHT22;40184;53.362;5.216;2023-04-25T03:36:59;6.80;99.90
54272;DHT22;40184;53.362;5.216;2023-04-25T03:39:25;6.70;99.90
54272;DHT22;40184;53.362;5.216;2023-04-25T03:41:51;6.60;99.90
54272;DHT22;40184;53.362;5.216;2023-04-25T03:44:16;6.50;99.90
54272;DHT22;40184;53.362;5.216;2023-04-25T03:46:42;6.30;99.90
54272;DHT22;40184;53.362;5.216;2023-04-25T03:49:08;6.30;99.90
54272;DHT22;40184;53.362;5.216;2023-04-25T03:51:33;6.10;99.90
54272;DHT22;40184;53.362;5.216;2023-04-25T03:53:59;6.10;99.90
54272;DHT22;40184;53.362;5.216;2023-04-25T03:56:25;6.10;99.90
54272;DHT22;40184;53.362;5.216;2023-04-25T03:58:50;6.10;99.90
54272;DHT22;40184;53.362;5.216;2023-04-25T04:01:16;6.10;99.90
54272;DHT22;40184;53.362;5.216;2023-04-25T04:03:42;6.10;99.90
54272;DHT22;40184;53.362;5.216;2023-04-25T04:06:08;6.10;99.90
54272;DHT22;40184;53.362;5.216;2023-04-25T04:08:34;6.10;99.90
54272;DHT22;40184;53.362;5.216;2023-04-25T04:11:00;6.20;99.90
54272;DHT22;40184;53.362;5.216;2023-04-25T04:13:29;6.20;99.90
54272;DHT22;40184;53.362;5.216;2023-04-25T04:15:55;6.20;99.90
54272;DHT22;40184;53.362;5.216;2023-04-25T04:18:21;6.20;99.90
54272;DHT22;40184;53.362;5.216;2023-04-25T04:20:47;6.20;99.90
54272;DHT22;40184;53.362;5.216;2023-04-25T04:23:13;6.20;99.90
54272;DHT22;40184;53.362;5.216;2023-04-25T04:25:39;6.20;99.90
54272;DHT22;40184;53.362;5.216;2023-04-25T04:28:06;6.20;99.90
54272;DHT22;40184;53.362;5.216;2023-04-25T04:30:32;6.20;99.90
54272;DHT22;40184;53.362;5.216;2023-04-25T04:32:59;6.30;99.90
54272;DHT22;40184;53.362;5.216;2023-04-25T04:35:26;6.40;99.90
54272;DHT22;40184;53.362;5.216;2023-04-25T04:37:52;6.50;99.90
54272;DHT22;40184;53.362;5.216;2023-04-25T04:40:19;6.60;99.90
54272;DHT22;40184;53.362;5.216;2023-04-25T04:42:46;6.60;99.90
54272;DHT22;40184;53.362;5.216;2023-04-25T04:45:11;6.60;99.90
54272;DHT22;40184;53.362;5.216;2023-04-25T04:47:38;6.50;99.90
54272;DHT22;40184;53.362;5.216;2023-04-25T04:50:06;6.50;99.90
54272;DHT22;40184;53.362;5.216;2023-04-25T04:52:35;6.40;99.90
54272;DHT22;40184;53.362;5.216;2023-04-25T04:55:01;6.30;99.90
54272;DHT22;40184;53.362;5.216;2023-04-25T04:57:27;6.30;99.90
54272;DHT22;40184;53.362;5.216;2023-04-25T04:59:53;6.30;99.90
54272;DHT22;40184;53.362;5.216;2023-04-25T05:02:19;6.30;99.90
54272;DHT22;40184;53.362;5.216;2023-04-25T05:04:45;6.30;99.90
54272;DHT22;40184;53.362;5.216;2023-04-25T05:07:11;6.40;99.90
54272;DHT22;40184;53.362;5.216;2023-04-25T05:09:37;6.40;99.90
54272;DHT22;40184;53.362;5.216;2023-04-25T05:12:02;6.40;99.90
54272;DHT22;40184;53.362;5.216;2023-04-25T05:14:28;6.40;99.90
54272;DHT22;40184;53.362;5.216;2023-04-25T05:16:54;6.40;99.90
54272;DHT22;40184;53.362;5.216;2023-04-25T05:19:20;6.40;99.90
54272;DHT22;40184;53.362;5.216;2023-04-25T05:21:46;6.40;99.90
54272;DHT22;40184;53.362;5.216;2023-04-25T05:24:11;6.50;99.90
54272;DHT22;40184;53.362;5.216;2023-04-25T05:26:38;6.50;99.90
54272;DHT22;40184;53.362;5.216;2023-04-25T05:29:03;6.70;99.90
54272;DHT22;40184;53.362;5.216;2023-04-25T05:31:29;6.70;99.90
54272;DHT22;40184;53.362;5.216;2023-04-25T05:33:55;6.80;99.90
54272;DHT22;40184;53.362;5.216;2023-04-25T05:36:20;6.80;99.90
54272;DHT22;40184;53.362;5.216;2023-04-25T05:38:46;6.80;99.90
54272;DHT22;40184;53.362;5.216;2023-04-25T05:41:12;6.80;99.90
54272;DHT22;40184;53.362;5.216;2023-04-25T05:43:38;6.80;99.90
54272;DHT22;40184;53.362;5.216;2023-04-25T05:46:03;6.90;99.90
54272;DHT22;40184;53.362;5.216;2023-04-25T05:48:30;6.90;99.90
54272;DHT22;40184;53.362;5.216;2023-04-25T05:50:55;6.90;99.90
54272;DHT22;40184;53.362;5.216;2023-04-25T05:53:21;7.00;99.90
54272;DHT22;40184;53.362;5.216;2023-04-25T05:55:47;7.10;99.90
54272;DHT22;40184;53.362;5.216;2023-04-25T05:58:13;7.10;99.90
54272;DHT22;40184;53.362;5.216;2023-04-25T06:00:39;7.10;99.90
54272;DHT22;40184;53.362;5.216;2023-04-25T06:03:06;7.10;99.90
54272;DHT22;40184;53.362;5.216;2023-04-25T06:05:35;7.20;99.90
54272;DHT22;40184;53.362;5.216;2023-04-25T06:08:01;7.30;99.90
54272;DHT22;40184;53.362;5.216;2023-04-25T06:10:26;7.30;99.90
54272;DHT22;40184;53.362;5.216;2023-04-25T06:12:52;7.30;99.90
54272;DHT22;40184;53.362;5.216;2023-04-25T06:15:18;7.30;99.90
54272;DHT22;40184;53.362;5.216;2023-04-25T06:17:43;7.30;99.90
54272;DHT22;40184;53.362;5.216;2023-04-25T06:20:09;7.30;99.90
54272;DHT22;40184;53.362;5.216;2023-04-25T06:22:35;7.20;99.90
54272;DHT22;40184;53.362;5.216;2023-04-25T06:25:01;7.20;99.90
54272;DHT22;40184;53.362;5.216;2023-04-25T06:27:29;7.30;99.90
54272;DHT22;40184;53.362;5.216;2023-04-25T06:29:55;7.40;99.90
54272;DHT22;40184;53.362;5.216;2023-04-25T06:32:20;7.40;99.90
54272;DHT22;40184;53.362;5.216;2023-04-25T06:34:46;7.40;99.90
54272;DHT22;40184;53.362;5.216;2023-04-25T06:37:12;7.40;99.90
54272;DHT22;40184;53.362;5.216;2023-04-25T06:39:37;7.30;99.90
54272;DHT22;40184;53.362;5.216;2023-04-25T06:42:03;7.40;99.90
54272;DHT22;40184;53.362;5.216;2023-04-25T06:44:28;7.40;99.90
54272;DHT22;40184;53.362;5.216;2023-04-25T06:46:55;7.30;99.90
54272;DHT22;40184;53.362;5.216;2023-04-25T06:49:22;7.20;99.90
54272;DHT22;40184;53.362;5.216;2023-04-25T06:51:51;7.10;99.90
54272;DHT22;40184;53.362;5.216;2023-04-25T06:54:16;7.10;99.90
54272;DHT22;40184;53.362;5.216;2023-04-25T06:56:43;7.10;99.90
54272;DHT22;40184;53.362;5.216;2023-04-25T06:59:08;7.20;99.90
54272;DHT22;40184;53.362;5.216;2023-04-25T07:01:34;7.30;99.90
54272;DHT22;40184;53.362;5.216;2023-04-25T07:04:00;7.40;99.90
54272;DHT22;40184;53.362;5.216;2023-04-25T07:06:26;7.50;99.90
54272;DHT22;40184;53.362;5.216;2023-04-25T07:08:53;7.50;99.90
54272;DHT22;40184;53.362;5.216;2023-04-25T07:11:19;7.50;99.90
54272;DHT22;40184;53.362;5.216;2023-04-25T07:13:45;7.60;99.90
54272;DHT22;40184;53.362;5.216;2023-04-25T07:16:10;7.70;99.90
54272;DHT22;40184;53.362;5.216;2023-04-25T07:18:36;7.90;99.90
54272;DHT22;40184;53.362;5.216;2023-04-25T07:21:02;8.00;99.90
54272;DHT22;40184;53.362;5.216;2023-04-25T07:23:27;8.30;99.90
54272;DHT22;40184;53.362;5.216;2023-04-25T07:25:53;8.50;99.90
54272;DHT22;40184;53.362;5.216;2023-04-25T07:28:19;8.60;99.90
54272;DHT22;40184;53.362;5.216;2023-04-25T07:30:44;8.90;99.90
54272;DHT22;40184;53.362;5.216;2023-04-25T07:33:10;9.10;99.90
54272;DHT22;40184;53.362;5.216;2023-04-25T07:35:36;9.20;99.90
54272;DHT22;40184;53.362;5.216;2023-04-25T07:38:02;9.20;99.90
54272;DHT22;40184;53.362;5.216;2023-04-25T07:40:28;9.20;99.90
54272;DHT22;40184;53.362;5.216;2023-04-25T07:42:54;9.20;99.90
54272;DHT22;40184;53.362;5.216;2023-04-25T07:45:19;9.30;99.90
54272;DHT22;40184;53.362;5.216;2023-04-25T07:47:45;9.50;99.90
54272;DHT22;40184;53.362;5.216;2023-04-25T07:50:11;9.50;99.90
54272;DHT22;40184;53.362;5.216;2023-04-25T07:52:37;9.60;99.90
54272;DHT22;40184;53.362;5.216;2023-04-25T07:55:03;9.70;99.90
54272;DHT22;40184;53.362;5.216;2023-04-25T07:57:29;10.00;99.90
54272;DHT22;40184;53.362;5.216;2023-04-25T07:59:55;10.10;99.90
54272;DHT22;40184;53.362;5.216;2023-04-25T08:02:20;9.80;99.90
54272;DHT22;40184;53.362;5.216;2023-04-25T08:04:46;9.50;99.90
54272;DHT22;40184;53.362;5.216;2023-04-25T08:07:11;9.40;99.90
54272;DHT22;40184;53.362;5.216;2023-04-25T08:09:37;9.60;99.90
54272;DHT22;40184;53.362;5.216;2023-04-25T08:12:03;9.40;99.90
54272;DHT22;40184;53.362;5.216;2023-04-25T08:14:30;9.40;99.90
54272;DHT22;40184;53.362;5.216;2023-04-25T08:17:01;9.30;99.90
54272;DHT22;40184;53.362;5.216;2023-04-25T08:19:29;9.20;99.90
54272;DHT22;40184;53.362;5.216;2023-04-25T08:21:54;8.90;99.90
54272;DHT22;40184;53.362;5.216;2023-04-25T08:24:22;8.40;99.90
54272;DHT22;40184;53.362;5.216;2023-04-25T08:26:48;8.10;99.90
54272;DHT22;40184;53.362;5.216;2023-04-25T08:29:14;7.80;99.90
54272;DHT22;40184;53.362;5.216;2023-04-25T08:31:39;7.70;99.90
54272;DHT22;40184;53.362;5.216;2023-04-25T08:34:05;7.60;99.90
54272;DHT22;40184;53.362;5.216;2023-04-25T08:36:31;7.50;99.90
54272;DHT22;40184;53.362;5.216;2023-04-25T08:38:58;7.60;99.90
54272;DHT22;40184;53.362;5.216;2023-04-25T08:41:24;7.80;99.90
54272;DHT22;40184;53.362;5.216;2023-04-25T08:43:51;7.90;99.90
54272;DHT22;40184;53.362;5.216;2023-04-25T08:46:19;8.10;99.90
54272;DHT22;40184;53.362;5.216;2023-04-25T08:48:46;8.20;99.90
54272;DHT22;40184;53.362;5.216;2023-04-25T08:51:24;8.30;99.90
54272;DHT22;40184;53.362;5.216;2023-04-25T08:53:52;8.30;99.90
54272;DHT22;40184;53.362;5.216;2023-04-25T08:56:18;8.20;99.90
54272;DHT22;40184;53.362;5.216;2023-04-25T08:58:50;8.20;99.90
54272;DHT22;40184;53.362;5.216;2023-04-25T09:01:16;8.20;99.90
54272;DHT22;40184;53.362;5.216;2023-04-25T09:03:43;8.20;99.90
54272;DHT22;40184;53.362;5.216;2023-04-25T09:06:11;8.30;99.90
54272;DHT22;40184;53.362;5.216;2023-04-25T09:08:37;8.40;99.90
54272;DHT22;40184;53.362;5.216;2023-04-25T09:11:06;8.60;99.90
54272;DHT22;40184;53.362;5.216;2023-04-25T09:13:31;8.60;99.90
54272;DHT22;40184;53.362;5.216;2023-04-25T09:15:58;9.00;99.90
54272;DHT22;40184;53.362;5.216;2023-04-25T09:18:25;9.10;99.90
54272;DHT22;40184;53.362;5.216;2023-04-25T09:21:13;9.20;99.90
54272;DHT22;40184;53.362;5.216;2023-04-25T09:23:45;9.40;99.90
54272;DHT22;40184;53.362;5.216;2023-04-25T09:26:16;9.70;99.90
54272;DHT22;40184;53.362;5.216;2023-04-25T09:28:42;9.90;99.90
54272;DHT22;40184;53.362;5.216;2023-04-25T09:31:10;9.80;99.90
54272;DHT22;40184;53.362;5.216;2023-04-25T09:33:37;9.80;99.90
54272;DHT22;40184;53.362;5.216;2023-04-25T09:36:08;9.60;99.90
54272;DHT22;40184;53.362;5.216;2023-04-25T09:38:44;9.70;99.90
54272;DHT22;40184;53.362;5.216;2023-04-25T09:41:10;10.00;99.90
54272;DHT22;40184;53.362;5.216;2023-04-25T09:43:37;10.20;99.90
54272;DHT22;40184;53.362;5.216;2023-04-25T09:46:09;10.30;99.90
54272;DHT22;40184;53.362;5.216;2023-04-25T09:48:35;10.30;99.90
54272;DHT22;40184;53.362;5.216;2023-04-25T09:53:30;10.50;99.90
54272;DHT22;40184;53.362;5.216;2023-04-25T09:55:59;10.70;99.90
54272;DHT22;40184;53.362;5.216;2023-04-25T09:58:25;10.80;99.90
54272;DHT22;40184;53.362;5.216;2023-04-25T10:00:59;11.00;99.90
54272;DHT22;40184;53.362;5.216;2023-04-25T10:03:25;11.20;99.90
54272;DHT22;40184;53.362;5.216;2023-04-25T10:05:52;11.00;99.90
54272;DHT22;40184;53.362;5.216;2023-04-25T10:08:20;10.50;99.90
54272;DHT22;40184;53.362;5.216;2023-04-25T10:10:46;10.40;99.90
54272;DHT22;40184;53.362;5.216;2023-04-25T10:13:14;10.50;99.90
54272;DHT22;40184;53.362;5.216;2023-04-25T10:15:41;10.40;99.90
54272;DHT22;40184;53.362;5.216;2023-04-25T10:18:07;10.70;99.90
54272;DHT22;40184;53.362;5.216;2023-04-25T10:20:33;10.90;99.90
54272;DHT22;40184;53.362;5.216;2023-04-25T10:23:13;10.80;99.90
54272;DHT22;40184;53.362;5.216;2023-04-25T10:25:39;10.70;99.90
54272;DHT22;40184;53.362;5.216;2023-04-25T10:28:05;10.50;99.90
54272;DHT22;40184;53.362;5.216;2023-04-25T10:30:31;10.30;99.90
54272;DHT22;40184;53.362;5.216;2023-04-25T10:32:58;10.30;99.90
54272;DHT22;40184;53.362;5.216;2023-04-25T10:35:29;10.50;99.90
54272;DHT22;40184;53.362;5.216;2023-04-25T10:38:09;10.50;99.90
54272;DHT22;40184;53.362;5.216;2023-04-25T10:40:36;10.70;99.90
54272;DHT22;40184;53.362;5.216;2023-04-25T10:43:33;10.80;99.90
54272;DHT22;40184;53.362;5.216;2023-04-25T10:46:00;10.70;99.90
54272;DHT22;40184;53.362;5.216;2023-04-25T10:48:26;10.70;99.90
54272;DHT22;40184;53.362;5.216;2023-04-25T10:51:10;10.50;99.90
54272;DHT22;40184;53.362;5.216;2023-04-25T10:53:36;10.60;99.90
54272;DHT22;40184;53.362;5.216;2023-04-25T10:56:17;10.40;99.90
54272;DHT22;40184;53.362;5.216;2023-04-25T10:58:43;10.30;99.90
54272;DHT22;40184;53.362;5.216;2023-04-25T11:01:09;10.10;99.90
54272;DHT22;40184;53.362;5.216;2023-04-25T11:03:43;10.10;99.90
54272;DHT22;40184;53.362;5.216;2023-04-25T11:06:29;10.30;99.90
54272;DHT22;40184;53.362;5.216;2023-04-25T11:09:00;10.50;99.90
54272;DHT22;40184;53.362;5.216;2023-04-25T11:11:26;10.70;99.90
54272;DHT22;40184;53.362;5.216;2023-04-25T11:13:54;11.00;99.90
54272;DHT22;40184;53.362;5.216;2023-04-25T11:16:19;11.10;99.90
54272;DHT22;40184;53.362;5.216;2023-04-25T11:18:45;11.10;99.90
54272;DHT22;40184;53.362;5.216;2023-04-25T11:21:11;11.30;99.90
54272;DHT22;40184;53.362;5.216;2023-04-25T11:23:38;11.30;99.90
54272;DHT22;40184;53.362;5.216;2023-04-25T11:26:04;11.10;99.90
54272;DHT22;40184;53.362;5.216;2023-04-25T11:28:30;10.90;99.90
54272;DHT22;40184;53.362;5.216;2023-04-25T11:30:56;10.80;99.90
54272;DHT22;40184;53.362;5.216;2023-04-25T11:33:26;10.90;99.90
54272;DHT22;40184;53.362;5.216;2023-04-25T11:35:55;11.20;99.90
54272;DHT22;40184;53.362;5.216;2023-04-25T11:38:25;11.10;99.90
54272;DHT22;40184;53.362;5.216;2023-04-25T11:40:54;11.40;99.90
54272;DHT22;40184;53.362;5.216;2023-04-25T11:43:21;11.40;99.90
54272;DHT22;40184;53.362;5.216;2023-04-25T11:45:50;11.20;99.90
54272;DHT22;40184;53.362;5.216;2023-04-25T11:48:17;11.50;99.90
54272;DHT22;40184;53.362;5.216;2023-04-25T11:50:43;11.30;99.90
54272;DHT22;40184;53.362;5.216;2023-04-25T11:53:09;11.00;99.90
54272;DHT22;40184;53.362;5.216;2023-04-25T11:55:36;10.70;99.90
54272;DHT22;40184;53.362;5.216;2023-04-25T11:58:03;10.40;99.90
54272;DHT22;40184;53.362;5.216;2023-04-25T12:00:29;10.40;99.90
54272;DHT22;40184;53.362;5.216;2023-04-25T12:02:56;10.80;99.90
54272;DHT22;40184;53.362;5.216;2023-04-25T12:05:27;10.90;99.90
54272;DHT22;40184;53.362;5.216;2023-04-25T12:07:53;10.80;99.90
54272;DHT22;40184;53.362;5.216;2023-04-25T12:10:19;11.30;99.90
54272;DHT22;40184;53.362;5.216;2023-04-25T12:12:47;11.10;99.90
54272;DHT22;40184;53.362;5.216;2023-04-25T12:15:24;11.40;99.90
54272;DHT22;40184;53.362;5.216;2023-04-25T12:17:52;11.50;99.90
54272;DHT22;40184;53.362;5.216;2023-04-25T12:20:21;12.00;99.90
54272;DHT22;40184;53.362;5.216;2023-04-25T12:22:49;11.50;99.90
54272;DHT22;40184;53.362;5.216;2023-04-25T12:25:47;11.40;99.90
54272;DHT22;40184;53.362;5.216;2023-04-25T12:28:17;11.50;99.90
54272;DHT22;40184;53.362;5.216;2023-04-25T12:31:01;11.40;99.90
54272;DHT22;40184;53.362;5.216;2023-04-25T12:33:29;11.00;99.90
54272;DHT22;40184;53.362;5.216;2023-04-25T12:35:55;10.60;99.90
54272;DHT22;40184;53.362;5.216;2023-04-25T12:38:29;10.60;99.90
54272;DHT22;40184;53.362;5.216;2023-04-25T12:40:56;11.00;99.90
54272;DHT22;40184;53.362;5.216;2023-04-25T12:43:21;11.30;99.90
54272;DHT22;40184;53.362;5.216;2023-04-25T12:45:49;11.60;99.90
54272;DHT22;40184;53.362;5.216;2023-04-25T12:48:16;11.40;99.90
54272;DHT22;40184;53.362;5.216;2023-04-25T12:50:41;11.30;99.90
54272;DHT22;40184;53.362;5.216;2023-04-25T12:53:07;11.20;99.90
54272;DHT22;40184;53.362;5.216;2023-04-25T12:55:33;11.30;99.90
54272;DHT22;40184;53.362;5.216;2023-04-25T12:57:59;11.70;99.90
54272;DHT22;40184;53.362;5.216;2023-04-25T13:00:24;11.80;99.90
54272;DHT22;40184;53.362;5.216;2023-04-25T13:02:52;12.00;99.90
54272;DHT22;40184;53.362;5.216;2023-04-25T13:05:17;12.30;99.90
54272;DHT22;40184;53.362;5.216;2023-04-25T13:07:43;12.60;99.90
54272;DHT22;40184;53.362;5.216;2023-04-25T13:10:09;12.20;99.90
54272;DHT22;40184;53.362;5.216;2023-04-25T13:12:36;11.50;99.90
54272;DHT22;40184;53.362;5.216;2023-04-25T13:15:01;11.10;99.90
54272;DHT22;40184;53.362;5.216;2023-04-25T13:17:27;10.80;99.90
54272;DHT22;40184;53.362;5.216;2023-04-25T13:19:52;10.50;99.90
54272;DHT22;40184;53.362;5.216;2023-04-25T13:22:18;10.80;99.90
54272;DHT22;40184;53.362;5.216;2023-04-25T13:24:45;11.10;99.90
54272;DHT22;40184;53.362;5.216;2023-04-25T13:27:12;11.30;99.90
54272;DHT22;40184;53.362;5.216;2023-04-25T13:29:38;11.70;99.90
54272;DHT22;40184;53.362;5.216;2023-04-25T13:32:06;11.80;99.90
54272;DHT22;40184;53.362;5.216;2023-04-25T13:34:32;12.10;99.90
54272;DHT22;40184;53.362;5.216;2023-04-25T13:36:58;12.40;99.90
54272;DHT22;40184;53.362;5.216;2023-04-25T13:39:24;11.80;99.90
54272;DHT22;40184;53.362;5.216;2023-04-25T13:41:50;10.80;99.90
54272;DHT22;40184;53.362;5.216;2023-04-25T13:44:16;10.20;99.90
54272;DHT22;40184;53.362;5.216;2023-04-25T13:46:41;9.50;99.90
54272;DHT22;40184;53.362;5.216;2023-04-25T13:49:07;9.10;99.90
54272;DHT22;40184;53.362;5.216;2023-04-25T13:51:33;9.00;99.90
54272;DHT22;40184;53.362;5.216;2023-04-25T13:53:58;9.10;99.90
54272;DHT22;40184;53.362;5.216;2023-04-25T13:56:24;9.90;99.90
54272;DHT22;40184;53.362;5.216;2023-04-25T13:58:50;10.70;99.90
54272;DHT22;40184;53.362;5.216;2023-04-25T14:01:17;11.00;99.90
54272;DHT22;40184;53.362;5.216;2023-04-25T14:03:43;11.50;99.90
54272;DHT22;40184;53.362;5.216;2023-04-25T14:06:09;12.00;99.90
54272;DHT22;40184;53.362;5.216;2023-04-25T14:08:36;12.70;99.90
54272;DHT22;40184;53.362;5.216;2023-04-25T14:11:02;13.20;99.90
54272;DHT22;40184;53.362;5.216;2023-04-25T14:13:28;13.50;99.90
54272;DHT22;40184;53.362;5.216;2023-04-25T14:15:54;13.80;99.90
54272;DHT22;40184;53.362;5.216;2023-04-25T14:18:20;14.10;99.90
54272;DHT22;40184;53.362;5.216;2023-04-25T14:20:46;14.20;99.90
54272;DHT22;40184;53.362;5.216;2023-04-25T14:23:11;14.50;99.90
54272;DHT22;40184;53.362;5.216;2023-04-25T14:25:37;15.00;99.90
54272;DHT22;40184;53.362;5.216;2023-04-25T14:28:03;14.90;99.90
54272;DHT22;40184;53.362;5.216;2023-04-25T14:30:29;14.90;99.90
54272;DHT22;40184;53.362;5.216;2023-04-25T14:32:54;15.00;99.90
54272;DHT22;40184;53.362;5.216;2023-04-25T14:35:20;15.30;99.90
54272;DHT22;40184;53.362;5.216;2023-04-25T14:37:46;15.10;99.90
54272;DHT22;40184;53.362;5.216;2023-04-25T14:40:12;15.20;99.90
54272;DHT22;40184;53.362;5.216;2023-04-25T14:42:40;15.20;99.90
54272;DHT22;40184;53.362;5.216;2023-04-25T14:45:07;15.30;99.90
54272;DHT22;40184;53.362;5.216;2023-04-25T14:47:35;15.30;99.90
54272;DHT22;40184;53.362;5.216;2023-04-25T14:50:01;15.30;99.90
54272;DHT22;40184;53.362;5.216;2023-04-25T14:52:27;15.40;99.90
54272;DHT22;40184;53.362;5.216;2023-04-25T14:54:53;15.60;99.90
54272;DHT22;40184;53.362;5.216;2023-04-25T14:57:18;15.50;99.90
54272;DHT22;40184;53.362;5.216;2023-04-25T14:59:44;15.40;99.90
54272;DHT22;40184;53.362;5.216;2023-04-25T15:02:11;15.50;99.90
54272;DHT22;40184;53.362;5.216;2023-04-25T15:04:37;14.80;99.90
54272;DHT22;40184;53.362;5.216;2023-04-25T15:07:03;13.80;99.90
54272;DHT22;40184;53.362;5.216;2023-04-25T15:09:29;12.90;99.90
54272;DHT22;40184;53.362;5.216;2023-04-25T15:11:56;12.30;99.90
54272;DHT22;40184;53.362;5.216;2023-04-25T15:14:21;12.60;99.90
54272;DHT22;40184;53.362;5.216;2023-04-25T15:16:47;12.20;99.90
54272;DHT22;40184;53.362;5.216;2023-04-25T15:19:13;12.10;99.90
54272;DHT22;40184;53.362;5.216;2023-04-25T15:21:39;12.20;99.90
54272;DHT22;40184;53.362;5.216;2023-04-25T15:24:05;12.60;99.90
54272;DHT22;40184;53.362;5.216;2023-04-25T15:26:31;12.70;99.90
54272;DHT22;40184;53.362;5.216;2023-04-25T15:28:56;13.50;99.90
54272;DHT22;40184;53.362;5.216;2023-04-25T15:31:22;13.70;99.90
54272;DHT22;40184;53.362;5.216;2023-04-25T15:33:48;14.30;99.90
54272;DHT22;40184;53.362;5.216;2023-04-25T15:36:13;13.80;99.90
54272;DHT22;40184;53.362;5.216;2023-04-25T15:38:41;13.30;99.90
54272;DHT22;40184;53.362;5.216;2023-04-25T15:41:07;12.40;99.90